Time;durP1;ratioP1;P1;durP2;ratioP2;P2;SDS_P1;SDS_P2;PMS_P1;PMS_P2;Temp;Humidity;BMP_temperature;BMP_pressure;BME280_temperature;BME280_humidity;BME280_pressure;Samples;Min_cycle;Max_cycle;Signal;HPM_P1;HPM_P2
2022/12/01 00:01:30;;;;;;;101.78;41.10;;;5.90;99.90;;;;;;5065410;28;20048;-87
2022/12/01 00:03:55;;;;;;;106.50;41.70;;;5.90;99.90;;;;;;5035215;28;20037;-86
2022/12/01 00:06:21;;;;;;;100.35;42.15;;;5.90;99.90;;;;;;5065669;28;20037;-86
2022/12/01 00:11:35;;;;;;;103.28;42.58;;;5.80;99.90;;;;;;5032304;28;20047;-87
2022/12/01 00:14:01;;;;;;;100.20;40.45;;;5.90;99.90;;;;;;5034589;28;20040;-87
2022/12/01 00:16:27;;;;;;;101.05;41.42;;;5.90;99.90;;;;;;5035250;28;20933;-87
2022/12/01 00:18:55;;;;;;;96.90;41.38;;;5.90;99.90;;;;;;5036633;28;20064;-87
2022/12/01 00:21:23;;;;;;;103.55;41.78;;;5.80;99.90;;;;;;5035707;28;20043;-87
2022/12/01 00:23:51;;;;;;;101.10;41.30;;;5.90;99.90;;;;;;5022695;28;20131;-87
2022/12/01 00:26:19;;;;;;;105.57;43.45;;;5.90;99.90;;;;;;5052471;28;20223;-86
2022/12/01 00:28:56;;;;;;;99.10;41.85;;;5.90;99.90;;;;;;5038956;28;20041;-87
2022/12/01 00:31:22;;;;;;;99.85;40.88;;;5.90;99.90;;;;;;5022391;28;20060;-87
2022/12/01 00:33:48;;;;;;;108.43;43.38;;;5.90;99.90;;;;;;5022737;28;20037;-86
2022/12/01 00:36:14;;;;;;;95.15;39.95;;;5.90;99.90;;;;;;5038824;28;20404;-87
2022/12/01 00:38:39;;;;;;;100.60;42.97;;;5.80;99.90;;;;;;5025639;28;20452;-87
2022/12/01 00:41:05;;;;;;;101.07;42.92;;;5.80;99.90;;;;;;5024824;28;20528;-87
2022/12/01 00:43:31;;;;;;;103.63;40.92;;;5.90;99.90;;;;;;5071356;28;20036;-86
2022/12/01 00:45:57;;;;;;;99.50;42.97;;;5.90;99.90;;;;;;5022861;28;20041;-87
2022/12/01 00:48:23;;;;;;;94.55;41.85;;;5.90;99.90;;;;;;5054431;28;20197;-87
2022/12/01 00:50:51;;;;;;;94.57;40.95;;;5.90;99.90;;;;;;5028133;28;20480;-86
2022/12/01 00:53:16;;;;;;;103.50;41.10;;;5.80;99.90;;;;;;5019998;28;20045;-87
2022/12/01 00:55:42;;;;;;;101.78;43.25;;;5.80;99.90;;;;;;5021724;28;20049;-87
2022/12/01 00:58:10;;;;;;;96.47;41.15;;;5.80;99.90;;;;;;5022959;28;20111;-87
2022/12/01 01:00:39;;;;;;;97.72;41.03;;;5.80;99.90;;;;;;5036362;28;20041;-86
2022/12/01 01:03:08;;;;;;;111.82;44.17;;;5.80;99.90;;;;;;5036798;28;20046;-87
2022/12/01 01:05:38;;;;;;;103.43;42.30;;;5.80;99.90;;;;;;5037841;28;20472;-87
2022/12/01 01:08:08;;;;;;;108.07;43.28;;;5.80;99.90;;;;;;5036174;28;20094;-87
2022/12/01 01:10:38;;;;;;;101.72;41.95;;;5.80;99.90;;;;;;5051648;28;20053;-86
2022/12/01 01:13:04;;;;;;;103.57;44.03;;;5.90;99.90;;;;;;5021629;28;20585;-87
2022/12/01 01:15:30;;;;;;;108.22;43.53;;;5.90;99.90;;;;;;5052354;28;20046;-87
2022/12/01 01:17:56;;;;;;;105.35;45.25;;;5.90;99.90;;;;;;5021054;28;20442;-87
2022/12/01 01:20:21;;;;;;;110.80;44.55;;;5.80;99.90;;;;;;5039391;28;20052;-87
2022/12/01 01:22:47;;;;;;;106.35;44.78;;;5.90;99.90;;;;;;5050608;28;20523;-86
2022/12/01 01:25:12;;;;;;;104.70;43.65;;;5.90;99.90;;;;;;5050163;28;20373;-87
2022/12/01 01:27:38;;;;;;;111.60;44.30;;;5.90;99.90;;;;;;5020725;28;20033;-87
2022/12/01 01:30:05;;;;;;;103.05;42.17;;;5.90;99.90;;;;;;5020860;28;20531;-88
2022/12/01 01:32:30;;;;;;;101.25;42.75;;;5.80;99.90;;;;;;5017505;28;20147;-87
2022/12/01 01:34:56;;;;;;;101.70;42.35;;;5.90;99.90;;;;;;5052479;28;20590;-87
2022/12/01 01:37:21;;;;;;;103.55;42.45;;;5.90;99.90;;;;;;5022902;28;20044;-87
2022/12/01 01:39:47;;;;;;;105.80;43.63;;;5.80;99.90;;;;;;5035345;28;20480;-87
2022/12/01 01:42:13;;;;;;;110.47;44.67;;;5.80;99.90;;;;;;5024776;28;20430;-86
2022/12/01 01:44:51;;;;;;;105.93;43.83;;;5.80;99.90;;;;;;5033310;28;20120;-87
2022/12/01 01:47:23;;;;;;;103.97;43.75;;;5.90;99.90;;;;;;5020531;28;20033;-87
2022/12/01 01:49:49;;;;;;;105.10;43.67;;;5.80;99.90;;;;;;5020887;28;20312;-87
2022/12/01 01:52:15;;;;;;;104.88;43.75;;;5.80;99.90;;;;;;5037609;28;20060;-87
2022/12/01 01:54:46;;;;;;;100.40;43.35;;;5.80;99.90;;;;;;5036216;28;20742;-86
2022/12/01 01:57:16;;;;;;;104.75;43.83;;;5.80;99.90;;;;;;5033225;28;20576;-85
2022/12/01 01:59:52;;;;;;;104.97;43.60;;;5.80;99.90;;;;;;5021300;28;20091;-87
2022/12/01 02:02:19;;;;;;;107.18;44.05;;;5.90;99.90;;;;;;5018855;28;20116;-86
2022/12/01 02:04:47;;;;;;;112.82;44.58;;;5.80;99.90;;;;;;5047962;28;20069;-86
2022/12/01 02:07:17;;;;;;;100.63;42.33;;;5.80;99.90;;;;;;5052833;28;20052;-87
2022/12/01 02:09:43;;;;;;;111.28;43.10;;;5.80;99.90;;;;;;5047839;28;20052;-86
2022/12/01 02:12:21;;;;;;;106.53;43.10;;;5.80;99.90;;;;;;5022414;28;20081;-87
2022/12/01 02:15:33;;;;;;;109.57;43.50;;;5.80;99.90;;;;;;5064745;28;20040;-86
2022/12/01 02:18:33;;;;;;;102.03;42.90;;;5.90;99.90;;;;;;5024948;28;20142;-88
2022/12/01 02:21:26;;;;;;;99.13;43.33;;;5.80;99.90;;;;;;5051652;28;20048;-86
2022/12/01 02:24:13;;;;;;;107.18;44.13;;;5.90;99.90;;;;;;5049686;28;20516;-85
2022/12/01 02:27:02;;;;;;;101.75;41.92;;;5.80;99.90;;;;;;5033847;28;20033;-85
2022/12/01 02:29:49;;;;;;;104.72;43.67;;;5.80;99.90;;;;;;5051914;28;20044;-85
2022/12/01 02:32:30;;;;;;;105.97;42.45;;;5.80;99.90;;;;;;5015370;28;20489;-85
2022/12/01 02:35:11;;;;;;;103.60;42.63;;;5.90;99.90;;;;;;5017904;28;20053;-85
2022/12/01 02:38:22;;;;;;;109.00;43.17;;;5.80;99.90;;;;;;5034183;28;20089;-85
2022/12/01 02:40:53;;;;;;;99.63;43.72;;;5.80;99.90;;;;;;4994555;28;20143;-85
2022/12/01 02:43:24;;;;;;;101.43;42.47;;;5.80;99.90;;;;;;5020764;28;21141;-85
2022/12/01 02:46:03;;;;;;;103.82;44.03;;;5.70;99.90;;;;;;5022556;28;20070;-85
2022/12/01 02:48:35;;;;;;;111.78;46.00;;;5.70;99.90;;;;;;5019426;28;20279;-86
2022/12/01 02:51:35;;;;;;;104.13;43.65;;;5.70;99.90;;;;;;5053333;28;20056;-85
2022/12/01 02:54:02;;;;;;;100.70;44.05;;;5.80;99.90;;;;;;5020574;28;20079;-85
2022/12/01 02:56:28;;;;;;;110.32;44.13;;;5.70;99.90;;;;;;5037109;28;20048;-85
2022/12/01 02:59:00;;;;;;;106.75;44.50;;;5.70;99.90;;;;;;5048882;28;20694;-85
2022/12/01 03:01:36;;;;;;;107.03;43.10;;;5.70;99.90;;;;;;5052433;28;20044;-85
2022/12/01 03:04:14;;;;;;;110.90;44.20;;;5.80;99.90;;;;;;5049276;28;20526;-85
2022/12/01 03:07:11;;;;;;;108.10;45.33;;;5.80;99.90;;;;;;5015271;28;20045;-84
2022/12/01 03:09:50;;;;;;;101.45;44.13;;;5.80;99.90;;;;;;5033426;28;20134;-85
2022/12/01 03:12:27;;;;;;;112.78;44.40;;;5.80;99.90;;;;;;5067650;28;20041;-85
2022/12/01 03:15:14;;;;;;;109.93;43.03;;;5.80;99.90;;;;;;5049632;28;20124;-85
2022/12/01 03:17:56;;;;;;;106.00;44.50;;;5.80;99.90;;;;;;5018296;28;20048;-83
2022/12/01 03:20:37;;;;;;;96.22;41.80;;;5.80;99.90;;;;;;5016479;28;20059;-84
2022/12/01 03:23:09;;;;;;;111.40;44.33;;;5.80;99.90;;;;;;5064156;28;20056;-84
2022/12/01 03:25:38;;;;;;;106.53;44.47;;;5.80;99.90;;;;;;5048310;28;20040;-85
2022/12/01 03:28:06;;;;;;;115.57;44.30;;;5.80;99.90;;;;;;5033663;28;20043;-85
2022/12/01 03:30:35;;;;;;;114.60;46.53;;;5.70;99.90;;;;;;5035922;28;20045;-85
2022/12/01 03:33:08;;;;;;;110.93;44.95;;;5.70;99.90;;;;;;5035585;28;20036;-85
2022/12/01 03:35:53;;;;;;;114.95;45.88;;;5.60;99.90;;;;;;5052006;28;20051;-85
2022/12/01 03:38:23;;;;;;;106.72;43.78;;;5.60;99.90;;;;;;5046490;28;20128;-85
2022/12/01 03:40:55;;;;;;;108.97;44.85;;;5.70;99.90;;;;;;5018810;28;20048;-85
2022/12/01 03:43:27;;;;;;;117.88;46.97;;;5.70;99.90;;;;;;5063875;28;20051;-85
2022/12/01 03:45:55;;;;;;;108.95;44.80;;;5.70;99.90;;;;;;5065897;28;20036;-85
2022/12/01 03:48:23;;;;;;;105.47;43.80;;;5.70;99.90;;;;;;5022864;28;20671;-84
2022/12/01 03:51:25;;;;;;;115.00;44.72;;;5.70;99.90;;;;;;5017384;28;20040;-85
2022/12/01 03:54:02;;;;;;;108.85;43.60;;;5.70;99.90;;;;;;5062031;28;20060;-86
2022/12/01 03:56:35;;;;;;;108.55;46.45;;;5.70;99.90;;;;;;5048081;28;20393;-85
2022/12/01 03:59:03;;;;;;;119.03;45.08;;;5.70;99.90;;;;;;5035803;28;20316;-85
2022/12/01 04:01:31;;;;;;;115.43;44.50;;;5.60;99.90;;;;;;5050549;28;20037;-85
2022/12/01 04:04:11;;;;;;;114.15;45.05;;;5.60;99.90;;;;;;5020585;28;20160;-85
2022/12/01 04:06:39;;;;;;;113.95;43.40;;;5.60;99.90;;;;;;5047599;28;20494;-85
2022/12/01 04:09:04;;;;;;;122.28;46.65;;;5.60;99.90;;;;;;5021258;28;20116;-85
2022/12/01 04:14:14;;;;;;;122.30;47.60;;;5.60;99.90;;;;;;5035708;28;20037;-85
2022/12/01 04:16:40;;;;;;;119.93;46.67;;;5.60;99.90;;;;;;5049736;28;20037;-84
2022/12/01 04:19:06;;;;;;;124.40;46.25;;;5.60;99.90;;;;;;5019007;28;20075;-85
2022/12/01 04:21:31;;;;;;;119.22;46.63;;;5.60;99.90;;;;;;5035257;28;20159;-86
2022/12/01 04:24:02;;;;;;;114.47;46.17;;;5.60;99.90;;;;;;5037163;28;20032;-86
2022/12/01 04:26:31;;;;;;;114.30;45.95;;;5.60;99.90;;;;;;5018638;28;20138;-85
2022/12/01 04:28:58;;;;;;;123.63;48.28;;;5.70;99.90;;;;;;5022823;28;20230;-85
2022/12/01 04:31:23;;;;;;;117.82;46.40;;;5.70;99.90;;;;;;5048322;28;20044;-85
2022/12/01 04:33:49;;;;;;;128.18;45.65;;;5.70;99.90;;;;;;5019970;28;20055;-85
2022/12/01 04:36:15;;;;;;;110.43;45.78;;;5.70;99.90;;;;;;5048726;28;20040;-85
2022/12/01 04:38:43;;;;;;;119.88;47.75;;;5.70;99.90;;;;;;5022331;28;20067;-85
2022/12/01 04:41:10;;;;;;;118.13;46.50;;;5.70;99.90;;;;;;5023799;28;20570;-85
2022/12/01 04:43:36;;;;;;;123.63;47.47;;;5.70;99.90;;;;;;5066270;28;20044;-84
2022/12/01 04:46:02;;;;;;;124.80;47.70;;;5.70;99.90;;;;;;5022293;28;20338;-85
2022/12/01 04:48:28;;;;;;;122.15;48.15;;;5.60;99.90;;;;;;5018060;28;20611;-83
2022/12/01 04:50:54;;;;;;;113.43;46.63;;;5.70;99.90;;;;;;5038693;28;20050;-85
2022/12/01 04:53:20;;;;;;;122.80;46.30;;;5.70;99.90;;;;;;5032491;28;20045;-84
2022/12/01 04:55:45;;;;;;;118.05;45.25;;;5.70;99.90;;;;;;5045113;28;20147;-84
2022/12/01 04:58:11;;;;;;;121.32;46.78;;;5.70;99.90;;;;;;5019617;28;20349;-85
2022/12/01 05:00:37;;;;;;;115.82;47.13;;;5.80;99.90;;;;;;5037335;28;20036;-85
2022/12/01 05:03:02;;;;;;;115.28;44.42;;;5.70;99.90;;;;;;5019141;28;20125;-85
2022/12/01 05:05:28;;;;;;;111.40;45.08;;;5.70;99.90;;;;;;5021732;28;20110;-85
2022/12/01 05:07:54;;;;;;;115.53;47.30;;;5.70;99.90;;;;;;5067144;28;20037;-85
2022/12/01 05:10:20;;;;;;;122.13;45.85;;;5.70;99.90;;;;;;5040460;28;20150;-85
2022/12/01 05:12:46;;;;;;;99.22;35.83;;;5.70;99.90;;;;;;5066109;28;20037;-85
2022/12/01 05:15:13;;;;;;;90.90;35.33;;;5.70;99.90;;;;;;5050050;28;20360;-84
2022/12/01 05:17:38;;;;;;;99.82;36.58;;;5.70;99.90;;;;;;5024093;28;20033;-85
2022/12/01 05:22:51;;;;;;;;;;;5.70;99.90;;;;;;5066008;28;20489;-85
2022/12/01 05:25:17;;;;;;;88.93;32.13;;;5.70;99.90;;;;;;5025715;28;19967;-85
2022/12/01 05:27:43;;;;;;;90.05;33.55;;;5.70;99.90;;;;;;5050302;28;20129;-85
2022/12/01 05:30:11;;;;;;;88.65;33.33;;;5.70;99.90;;;;;;5039878;28;20336;-84
2022/12/01 05:32:37;;;;;;;83.25;34.72;;;5.70;99.90;;;;;;5025123;28;20565;-85
2022/12/01 05:35:02;;;;;;;89.25;33.88;;;5.70;99.90;;;;;;5022489;28;20083;-85
2022/12/01 05:37:32;;;;;;;86.32;33.03;;;5.60;99.90;;;;;;5028119;28;20040;-85
2022/12/01 05:39:57;;;;;;;86.47;34.38;;;5.60;99.90;;;;;;5038298;28;20385;-85
2022/12/01 05:42:23;;;;;;;85.57;33.08;;;5.60;99.90;;;;;;5023924;28;20032;-85
2022/12/01 05:44:51;;;;;;;91.78;34.72;;;5.50;99.90;;;;;;5024137;28;20099;-85
2022/12/01 05:47:17;;;;;;;90.13;33.95;;;5.50;99.90;;;;;;5035968;28;20064;-83
2022/12/01 05:49:43;;;;;;;92.55;33.90;;;5.40;99.90;;;;;;5037463;28;20076;-85
2022/12/01 05:52:08;;;;;;;93.35;34.80;;;5.40;99.90;;;;;;5028641;28;20036;-84
2022/12/01 05:54:34;;;;;;;85.65;34.00;;;5.30;99.90;;;;;;5039028;28;20057;-85
2022/12/01 05:57:00;;;;;;;88.63;33.67;;;5.20;99.90;;;;;;5039990;28;20460;-85
2022/12/01 05:59:26;;;;;;;90.18;34.13;;;5.10;99.90;;;;;;5052607;28;20048;-85
2022/12/01 06:01:52;;;;;;;92.88;35.08;;;5.00;99.90;;;;;;5050790;28;20037;-85
2022/12/01 06:04:18;;;;;;;89.63;35.22;;;5.00;99.90;;;;;;5021244;28;20036;-85
2022/12/01 06:06:45;;;;;;;91.57;32.95;;;4.90;99.90;;;;;;5026004;28;20051;-85
2022/12/01 06:09:10;;;;;;;92.97;33.28;;;4.80;99.90;;;;;;5024697;28;20472;-85
2022/12/01 06:11:36;;;;;;;98.70;35.30;;;4.60;99.90;;;;;;5023733;28;20063;-83
2022/12/01 06:14:01;;;;;;;91.97;32.45;;;4.60;99.90;;;;;;5024006;28;20040;-85
2022/12/01 06:16:27;;;;;;;94.15;34.45;;;4.50;99.90;;;;;;5018828;28;20041;-85
2022/12/01 06:18:53;;;;;;;90.15;31.67;;;4.40;99.90;;;;;;5020290;28;20052;-85
2022/12/01 06:21:18;;;;;;;93.63;35.80;;;4.40;99.90;;;;;;5024291;28;20121;-85
2022/12/01 06:23:44;;;;;;;101.55;34.90;;;4.40;99.90;;;;;;5037430;28;20036;-85
2022/12/01 06:26:13;;;;;;;97.45;33.75;;;4.30;99.90;;;;;;5022629;28;20047;-85
2022/12/01 06:28:39;;;;;;;98.47;33.70;;;4.40;99.90;;;;;;5022638;28;20029;-85
2022/12/01 06:31:05;;;;;;;112.38;37.10;;;4.30;99.90;;;;;;5021745;28;20044;-84
2022/12/01 06:33:31;;;;;;;105.68;35.90;;;4.40;99.90;;;;;;5040204;28;20604;-85
2022/12/01 06:36:01;;;;;;;101.15;35.03;;;4.50;99.90;;;;;;5025415;28;20055;-85
2022/12/01 06:38:30;;;;;;;112.45;37.38;;;4.50;99.90;;;;;;5066774;28;20064;-84
2022/12/01 06:40:56;;;;;;;97.78;29.50;;;4.60;99.90;;;;;;5047966;28;20040;-85
2022/12/01 06:43:21;;;;;;;100.25;34.85;;;4.60;99.90;;;;;;5049468;28;20041;-85
2022/12/01 06:45:47;;;;;;;118.80;39.83;;;4.60;99.90;;;;;;5048338;28;20462;-85
2022/12/01 06:48:13;;;;;;;115.63;38.65;;;4.70;99.90;;;;;;5034463;28;20167;-85
2022/12/01 06:50:39;;;;;;;104.68;36.03;;;4.70;99.90;;;;;;5023097;28;20139;-85
2022/12/01 06:53:05;;;;;;;110.95;37.22;;;4.80;99.90;;;;;;5044497;28;20129;-85
2022/12/01 06:55:32;;;;;;;111.43;37.95;;;4.70;99.90;;;;;;5048240;28;20475;-85
2022/12/01 06:58:01;;;;;;;105.15;37.20;;;4.70;99.90;;;;;;5016594;28;20056;-86
2022/12/01 07:00:27;;;;;;;108.97;36.63;;;4.80;99.90;;;;;;5025202;28;20064;-85
2022/12/01 07:02:53;;;;;;;124.03;39.22;;;4.80;99.90;;;;;;5023636;28;20462;-85
2022/12/01 07:05:18;;;;;;;108.53;36.47;;;4.90;99.90;;;;;;5024132;28;21338;-85
2022/12/01 07:07:44;;;;;;;96.50;33.22;;;4.90;99.90;;;;;;5023407;28;20304;-86
2022/12/01 07:10:11;;;;;;;111.15;37.38;;;4.90;99.90;;;;;;5036752;28;20074;-85
2022/12/01 07:12:37;;;;;;;112.97;38.78;;;4.90;99.90;;;;;;5022413;28;20360;-85
2022/12/01 07:15:05;;;;;;;81.22;29.67;;;4.90;99.90;;;;;;5048140;28;20053;-85
2022/12/01 07:17:30;;;;;;;78.03;30.05;;;4.90;99.90;;;;;;5064842;28;20906;-85
2022/12/01 07:19:57;;;;;;;89.15;31.02;;;4.90;99.90;;;;;;5022551;28;20043;-85
2022/12/01 07:22:22;;;;;;;101.20;34.35;;;4.90;99.90;;;;;;5050879;28;20441;-86
2022/12/01 07:24:48;;;;;;;104.80;34.50;;;4.90;99.90;;;;;;5021134;28;20089;-85
2022/12/01 07:27:14;;;;;;;106.18;38.72;;;4.80;99.90;;;;;;5046777;28;20041;-86
2022/12/01 07:29:39;;;;;;;122.63;41.05;;;4.80;99.90;;;;;;5066625;28;20056;-85
2022/12/01 07:32:05;;;;;;;100.75;36.45;;;4.70;99.90;;;;;;5026399;28;20047;-85
2022/12/01 07:34:30;;;;;;;101.68;34.88;;;4.70;99.90;;;;;;5023796;28;20146;-85
2022/12/01 07:36:57;;;;;;;136.05;31.58;;;4.60;99.90;;;;;;5064377;28;20284;-84
2022/12/01 07:39:23;;;;;;;100.28;30.15;;;4.40;99.90;;;;;;5020190;28;20613;-84
2022/12/01 07:41:48;;;;;;;100.00;31.77;;;4.40;99.90;;;;;;5048036;28;20045;-85
2022/12/01 07:44:14;;;;;;;141.13;41.47;;;4.30;99.90;;;;;;5017890;28;20029;-85
2022/12/01 07:46:39;;;;;;;136.15;40.35;;;4.40;99.90;;;;;;5035261;28;20040;-85
2022/12/01 07:49:07;;;;;;;127.68;39.10;;;4.20;99.90;;;;;;5020264;28;20068;-85
2022/12/01 07:51:33;;;;;;;129.93;39.35;;;4.20;99.90;;;;;;5017440;28;20503;-85
2022/12/01 07:54:05;;;;;;;123.68;38.40;;;4.20;99.90;;;;;;5044522;28;20072;-85
2022/12/01 07:56:31;;;;;;;143.02;40.60;;;4.20;99.90;;;;;;5017819;28;20465;-86
2022/12/01 07:58:59;;;;;;;161.40;32.33;;;4.00;99.90;;;;;;5034507;28;20076;-85
2022/12/01 08:01:25;;;;;;;130.43;39.25;;;4.00;99.90;;;;;;5066235;28;20362;-84
2022/12/01 08:03:53;;;;;;;198.68;40.80;;;4.10;99.90;;;;;;5018020;28;20468;-85
2022/12/01 08:06:20;;;;;;;220.57;40.17;;;4.10;99.90;;;;;;5065788;28;20041;-85
2022/12/01 08:08:46;;;;;;;336.85;41.53;;;4.00;99.90;;;;;;5036295;28;20098;-85
2022/12/01 08:11:21;;;;;;;346.52;45.38;;;4.10;99.90;;;;;;5024405;28;20044;-85
2022/12/01 08:13:47;;;;;;;237.48;33.88;;;4.00;99.90;;;;;;5015397;28;20048;-85
2022/12/01 08:16:15;;;;;;;352.55;38.78;;;4.00;99.90;;;;;;5049211;28;20153;-85
2022/12/01 08:18:42;;;;;;;273.27;35.63;;;4.00;99.90;;;;;;5036030;28;20037;-85
2022/12/01 08:21:11;;;;;;;580.30;44.67;;;4.00;99.90;;;;;;5023054;28;20350;-84
2022/12/01 08:23:37;;;;;;;423.20;39.35;;;4.00;99.90;;;;;;5034694;28;20036;-85
2022/12/01 08:26:15;;;;;;;226.15;31.38;;;4.00;99.90;;;;;;5022119;28;20379;-83
2022/12/01 08:28:41;;;;;;;368.42;37.33;;;4.00;99.90;;;;;;5017245;28;20044;-85
2022/12/01 08:31:10;;;;;;;397.85;35.28;;;3.90;99.90;;;;;;5050051;28;20129;-85
2022/12/01 08:33:36;;;;;;;593.08;39.97;;;3.80;99.90;;;;;;5024094;28;20037;-85
2022/12/01 08:36:03;;;;;;;356.50;31.67;;;3.80;99.90;;;;;;5048310;28;20040;-86
2022/12/01 08:38:28;;;;;;;561.75;39.97;;;3.70;99.90;;;;;;5053854;28;20086;-85
2022/12/01 08:40:55;;;;;;;382.15;33.28;;;3.60;99.90;;;;;;5025252;28;20037;-85
2022/12/01 08:43:21;;;;;;;150.35;24.80;;;3.60;99.90;;;;;;5021602;28;20117;-85
2022/12/01 08:45:47;;;;;;;234.02;27.92;;;3.50;99.90;;;;;;5029244;28;20228;-85
2022/12/01 08:48:13;;;;;;;419.48;34.22;;;3.40;99.90;;;;;;5025989;28;20033;-85
2022/12/01 08:50:39;;;;;;;346.05;30.40;;;3.50;99.90;;;;;;5057000;28;20349;-84
2022/12/01 08:53:06;;;;;;;201.25;23.13;;;3.30;99.90;;;;;;5053275;28;20461;-84
2022/12/01 08:55:32;;;;;;;303.58;25.85;;;3.40;99.90;;;;;;5023082;28;20081;-84
2022/12/01 08:57:58;;;;;;;140.48;21.02;;;3.30;99.90;;;;;;5038876;28;20099;-84
2022/12/01 09:00:24;;;;;;;120.05;22.45;;;3.30;99.90;;;;;;5023109;28;20102;-85
2022/12/01 09:02:49;;;;;;;111.10;22.17;;;3.10;99.90;;;;;;5023480;28;20028;-85
2022/12/01 09:05:15;;;;;;;146.40;21.92;;;3.00;99.90;;;;;;5072052;28;20098;-85
2022/12/01 09:07:41;;;;;;;86.00;19.10;;;3.10;99.90;;;;;;5025738;28;20122;-84
2022/12/01 09:10:08;;;;;;;96.93;19.80;;;3.10;99.90;;;;;;5023936;28;20132;-85
2022/12/01 09:12:36;;;;;;;68.25;19.35;;;3.00;99.90;;;;;;5053293;28;20395;-85
2022/12/01 09:15:02;;;;;;;43.53;19.30;;;3.00;99.90;;;;;;5036512;28;20042;-85
2022/12/01 09:17:28;;;;;;;45.33;17.02;;;3.00;99.90;;;;;;5053154;28;20351;-85
2022/12/01 09:19:54;;;;;;;64.57;18.52;;;2.90;99.90;;;;;;5021912;28;20150;-85
2022/12/01 09:22:19;;;;;;;75.35;26.77;;;3.00;99.90;;;;;;5054266;28;20086;-86
2022/12/01 09:24:45;;;;;;;90.97;22.10;;;3.10;99.90;;;;;;5037346;28;20040;-85
2022/12/01 09:27:12;;;;;;;49.10;20.60;;;3.10;99.90;;;;;;5026889;28;20041;-84
2022/12/01 09:29:37;;;;;;;28.17;16.38;;;3.10;99.90;;;;;;5052318;28;20392;-85
2022/12/01 09:32:03;;;;;;;26.88;15.68;;;3.10;99.90;;;;;;5020454;28;20033;-85
2022/12/01 09:34:28;;;;;;;25.55;15.75;;;3.20;99.90;;;;;;5029821;28;20033;-84
2022/12/01 09:36:57;;;;;;;28.77;15.95;;;3.20;99.90;;;;;;5022352;28;20045;-85
2022/12/01 09:39:23;;;;;;;30.30;16.42;;;3.40;99.90;;;;;;5067466;28;20072;-84
2022/12/01 09:42:00;;;;;;;32.63;17.67;;;3.40;99.90;;;;;;5054030;28;20049;-85
2022/12/01 09:44:53;;;;;;;26.38;15.85;;;3.50;99.90;;;;;;5051616;28;20041;-85
2022/12/01 09:47:35;;;;;;;30.05;17.48;;;3.60;99.90;;;;;;5026808;28;20044;-84
2022/12/01 09:50:14;;;;;;;29.15;16.77;;;3.70;99.90;;;;;;5015687;28;20039;-85
2022/12/01 09:52:53;;;;;;;34.20;18.25;;;3.90;99.90;;;;;;5052003;28;20052;-85
2022/12/01 09:55:22;;;;;;;38.85;19.17;;;4.00;99.90;;;;;;5051628;28;20137;-85
2022/12/01 09:57:53;;;;;;;50.92;22.42;;;4.20;99.90;;;;;;5019603;28;20041;-85
2022/12/01 10:00:22;;;;;;;52.60;24.58;;;4.20;99.90;;;;;;5037353;28;20625;-85
2022/12/01 10:03:10;;;;;;;59.10;25.05;;;4.30;99.90;;;;;;5027626;28;20064;-85
2022/12/01 10:05:47;;;;;;;51.75;24.42;;;4.40;99.90;;;;;;5017630;28;20041;-85
2022/12/01 10:08:23;;;;;;;61.60;25.05;;;4.50;99.90;;;;;;5066424;28;20035;-85
2022/12/01 10:10:51;;;;;;;51.72;23.40;;;4.60;99.90;;;;;;5017679;28;20044;-85
2022/12/01 10:13:23;;;;;;;58.88;23.80;;;4.60;99.90;;;;;;5050093;28;20375;-85
2022/12/01 10:16:11;;;;;;;52.95;23.92;;;4.60;99.90;;;;;;5051206;28;20048;-85
2022/12/01 10:18:55;;;;;;;51.10;22.55;;;4.70;99.90;;;;;;5048870;28;20369;-85
2022/12/01 10:21:55;;;;;;;53.72;24.33;;;4.80;99.90;;;;;;5018641;28;20488;-85
2022/12/01 10:24:45;;;;;;;53.03;23.17;;;4.70;99.90;;;;;;5033287;28;20296;-85
2022/12/01 10:27:52;;;;;;;51.72;23.05;;;4.80;99.90;;;;;;5019503;28;20106;-85
2022/12/01 10:30:22;;;;;;;62.40;26.98;;;4.90;99.90;;;;;;5052013;28;20349;-85
2022/12/01 10:33:00;;;;;;;66.43;27.38;;;5.00;99.90;;;;;;5046821;28;20049;-84
2022/12/01 10:35:28;;;;;;;59.53;26.42;;;5.20;99.90;;;;;;5017793;28;20072;-85
2022/12/01 10:38:11;;;;;;;66.88;27.40;;;5.30;99.90;;;;;;5050828;28;20083;-86
2022/12/01 10:40:37;;;;;;;75.18;29.50;;;5.50;99.90;;;;;;5024077;28;20760;-85
2022/12/01 10:43:02;;;;;;;84.43;32.28;;;5.50;99.90;;;;;;5021372;28;20416;-83
2022/12/01 10:45:34;;;;;;;79.97;32.03;;;5.60;99.90;;;;;;5036104;28;20033;-85
2022/12/01 10:48:19;;;;;;;77.35;31.67;;;5.60;99.90;;;;;;5047594;28;20040;-84
2022/12/01 10:50:55;;;;;;;83.63;32.40;;;5.70;99.90;;;;;;5019035;28;20589;-85
2022/12/01 10:53:32;;;;;;;79.15;31.65;;;5.80;99.90;;;;;;5034724;28;20060;-85
2022/12/01 10:56:18;;;;;;;86.93;31.58;;;6.00;99.90;;;;;;5018201;28;20079;-84
2022/12/01 10:58:56;;;;;;;75.85;32.55;;;6.20;99.90;;;;;;5068929;28;20049;-85
2022/12/01 11:01:24;;;;;;;86.72;33.38;;;6.50;99.90;;;;;;5045873;28;20049;-85
2022/12/01 11:03:56;;;;;;;86.03;34.30;;;6.60;99.90;;;;;;5034696;28;20049;-85
2022/12/01 11:06:25;;;;;;;84.50;32.78;;;6.60;99.90;;;;;;5019179;28;20036;-85
2022/12/01 11:08:59;;;;;;;76.53;33.25;;;6.60;99.90;;;;;;5023565;28;20486;-85
2022/12/01 11:11:41;;;;;;;68.10;30.17;;;6.80;99.90;;;;;;5018771;28;20087;-85
2022/12/01 11:14:19;;;;;;;73.63;32.00;;;6.80;99.90;;;;;;5016538;28;20048;-84
2022/12/01 11:16:47;;;;;;;71.55;32.35;;;6.80;99.90;;;;;;5052441;28;20054;-84
2022/12/01 11:19:33;;;;;;;71.55;31.00;;;7.10;99.90;;;;;;5068129;28;20041;-85
2022/12/01 11:22:27;;;;;;;70.88;29.48;;;7.10;99.90;;;;;;5049656;28;20451;-85
2022/12/01 11:24:58;;;;;;;66.65;29.67;;;7.10;99.90;;;;;;5048065;28;20045;-85
2022/12/01 11:27:27;;;;;;;65.88;28.77;;;7.10;99.90;;;;;;5035904;28;20038;-85
2022/12/01 11:29:56;;;;;;;62.55;29.95;;;7.20;99.90;;;;;;5015512;28;20075;-85
2022/12/01 11:32:29;;;;;;;65.85;28.92;;;7.20;99.90;;;;;;5021100;28;20314;-85
2022/12/01 11:34:59;;;;;;;59.08;27.80;;;7.20;99.90;;;;;;5049521;28;21028;-85
2022/12/01 11:37:35;;;;;;;62.30;26.92;;;7.10;99.90;;;;;;5066807;28;20076;-85
2022/12/01 11:40:21;;;;;;;65.88;28.25;;;7.00;99.90;;;;;;5047217;28;20045;-85
2022/12/01 11:42:50;;;;;;;;;;;7.40;99.90;;;;;;5048430;28;20096;-85
2022/12/01 11:45:28;;;;;;;59.47;27.08;;;7.10;99.90;;;;;;5066424;28;19998;-85
2022/12/01 11:48:27;;;;;;;61.55;27.35;;;7.40;99.90;;;;;;5034924;28;20036;-85
2022/12/01 11:51:00;;;;;;;62.72;29.35;;;7.90;99.90;;;;;;5031058;28;20530;-85
2022/12/01 11:53:29;;;;;;;53.78;26.85;;;7.50;99.90;;;;;;5047151;28;20517;-85
2022/12/01 11:56:24;;;;;;;54.28;25.77;;;7.50;99.90;;;;;;5048432;28;20628;-86
2022/12/01 11:59:13;;;;;;;52.42;26.40;;;7.50;99.90;;;;;;5064548;28;20043;-84
2022/12/01 12:01:49;;;;;;;51.92;25.23;;;7.30;99.90;;;;;;5011943;28;20504;-84
2022/12/01 12:04:21;;;;;;;49.47;24.52;;;7.50;99.90;;;;;;5048581;28;20535;-85
2022/12/01 12:06:58;;;;;;;48.53;24.92;;;7.30;99.90;;;;;;5018130;28;20087;-85
2022/12/01 12:09:44;;;;;;;56.15;24.65;;;6.90;99.90;;;;;;5064106;28;20037;-85
2022/12/01 12:12:28;;;;;;;51.50;25.90;;;6.90;99.90;;;;;;5035624;28;20045;-84
2022/12/01 12:15:09;;;;;;;50.92;24.92;;;6.80;99.90;;;;;;5045429;28;20182;-84
2022/12/01 12:18:07;;;;;;;46.75;23.98;;;6.70;99.90;;;;;;5013780;28;20041;-85
2022/12/01 12:20:47;;;;;;;49.80;26.35;;;6.80;99.90;;;;;;5004272;28;20443;-85
2022/12/01 12:23:39;;;;;;;49.95;25.27;;;6.80;99.90;;;;;;5015889;28;20131;-85
2022/12/01 12:26:27;;;;;;;51.35;25.83;;;6.70;99.90;;;;;;5045769;28;20048;-85
2022/12/01 12:29:17;;;;;;;50.47;23.65;;;6.60;99.90;;;;;;5017113;28;20048;-84
2022/12/01 12:31:57;;;;;;;52.50;24.73;;;6.50;99.90;;;;;;5048404;28;20069;-87
2022/12/01 12:34:46;;;;;;;54.33;25.73;;;6.60;99.90;;;;;;5031170;28;20041;-87
2022/12/01 12:37:19;;;;;;;50.92;24.35;;;6.50;99.90;;;;;;5017735;28;20596;-86
2022/12/01 12:40:19;;;;;;;50.88;24.27;;;6.60;99.90;;;;;;5046765;28;20328;-87
2022/12/01 12:43:03;;;;;;;43.45;23.23;;;6.60;99.90;;;;;;5048991;28;20495;-86
2022/12/01 12:46:00;;;;;;;44.45;23.13;;;6.60;99.90;;;;;;5064640;28;20037;-87
2022/12/01 12:48:38;;;;;;;43.25;23.58;;;6.60;99.90;;;;;;5016129;28;20033;-87
2022/12/01 12:51:21;;;;;;;44.08;23.27;;;6.70;99.90;;;;;;5046811;28;20330;-88
2022/12/01 12:54:15;;;;;;;43.58;23.10;;;6.60;99.90;;;;;;5015909;28;20528;-86
2022/12/01 12:56:45;;;;;;;47.88;24.17;;;6.80;99.90;;;;;;5047318;28;20045;-87
2022/12/01 12:59:20;;;;;;;41.70;22.05;;;6.80;99.90;;;;;;5047854;28;20536;-87
2022/12/01 13:02:11;;;;;;;45.78;24.60;;;6.70;99.90;;;;;;5066474;28;20048;-87
2022/12/01 13:05:02;;;;;;;39.90;22.27;;;6.70;99.90;;;;;;5064644;28;20040;-87